createdAt,value
2018-07-26T00:01:40.492Z,6.97
2018-07-26T00:04:09.109Z,8.07
2018-07-26T00:06:37.578Z,8.67
2018-07-26T00:09:07.753Z,9.40
2018-07-26T00:11:36.285Z,8.87
2018-07-26T00:14:04.944Z,10.43
2018-07-26T00:16:33.413Z,7.73
2018-07-26T00:19:01.895Z,7.70
2018-07-26T00:21:30.448Z,8.93
2018-07-26T00:23:58.877Z,7.87
2018-07-26T00:26:27.330Z,7.83
2018-07-26T00:28:55.792Z,7.67
2018-07-26T00:31:24.263Z,6.80
2018-07-26T00:33:52.867Z,10.57
2018-07-26T00:36:21.331Z,9.20
2018-07-26T00:38:50.612Z,7.93
2018-07-26T00:41:19.485Z,7.90
2018-07-26T00:43:47.919Z,7.30
2018-07-26T00:46:16.545Z,8.17
2018-07-26T00:48:45.005Z,8.83
2018-07-26T00:51:13.483Z,10.13
2018-07-26T00:53:41.930Z,7.37
2018-07-26T00:56:10.443Z,7.53
2018-07-26T00:58:38.901Z,7.40
2018-07-26T01:01:07.387Z,7.77
2018-07-26T01:03:35.867Z,8.53
2018-07-26T01:06:04.328Z,8.77
2018-07-26T01:08:32.792Z,9.27
2018-07-26T01:11:01.252Z,8.00
2018-07-26T01:13:29.703Z,8.83
2018-07-26T01:15:58.187Z,9.00
2018-07-26T01:18:26.699Z,8.13
2018-07-26T01:20:55.210Z,7.33
2018-07-26T01:23:23.668Z,13.37
2018-07-26T01:25:52.275Z,8.17
2018-07-26T01:28:20.848Z,6.93
2018-07-26T01:30:49.302Z,9.43
2018-07-26T01:33:18.024Z,9.27
2018-07-26T01:35:46.522Z,8.97
2018-07-26T01:38:15.024Z,7.20
2018-07-26T01:40:43.500Z,8.47
2018-07-26T01:43:17.420Z,9.13
2018-07-26T01:45:45.883Z,7.77
2018-07-26T01:48:14.984Z,8.27
2018-07-26T01:50:44.287Z,7.50
2018-07-26T01:53:13.412Z,8.00
2018-07-26T01:55:41.890Z,8.13
2018-07-26T01:58:10.362Z,8.83
2018-07-26T02:00:38.835Z,7.97
2018-07-26T02:03:07.323Z,7.97
2018-07-26T02:05:35.780Z,7.83
2018-07-26T02:08:04.272Z,7.03
2018-07-26T02:10:32.728Z,7.53
2018-07-26T02:13:01.203Z,8.90
2018-07-26T02:15:29.667Z,7.70
2018-07-26T02:17:58.137Z,7.20
2018-07-26T02:20:26.620Z,7.23
2018-07-26T02:22:55.209Z,7.07
2018-07-26T02:25:23.685Z,8.57
2018-07-26T02:27:52.209Z,7.60
2018-07-26T02:30:20.707Z,8.37
2018-07-26T02:32:49.176Z,10.60
2018-07-26T02:35:17.727Z,6.67
2018-07-26T02:37:46.180Z,8.27
2018-07-26T02:40:14.928Z,9.20
2018-07-26T02:42:43.398Z,9.07
2018-07-26T02:45:11.922Z,8.43
2018-07-26T02:47:40.392Z,8.57
2018-07-26T02:50:08.835Z,8.23
2018-07-26T02:52:37.528Z,8.73
2018-07-26T02:55:06.303Z,8.47
2018-07-26T02:57:34.836Z,7.53
2018-07-26T03:00:03.476Z,9.17
2018-07-26T03:02:31.940Z,8.77
2018-07-26T03:05:00.384Z,7.87
2018-07-26T03:07:28.959Z,8.13
2018-07-26T03:09:57.423Z,8.60
2018-07-26T03:12:26.588Z,8.23
2018-07-26T03:14:55.873Z,7.87
2018-07-26T03:17:25.077Z,9.43
2018-07-26T03:19:54.306Z,7.33
2018-07-26T03:22:23.342Z,8.43
2018-07-26T03:24:52.600Z,8.70
2018-07-26T03:27:21.206Z,8.60
2018-07-26T03:29:49.655Z,7.37
2018-07-26T03:32:18.140Z,8.30
2018-07-26T03:34:46.603Z,8.00
2018-07-26T03:37:15.058Z,8.30
2018-07-26T03:39:44.160Z,8.83
2018-07-26T03:42:13.403Z,8.90
2018-07-26T03:44:42.631Z,8.33
2018-07-26T03:47:11.619Z,9.27
2018-07-26T03:49:40.095Z,7.87
2018-07-26T03:52:08.636Z,7.37
2018-07-26T03:54:37.143Z,7.90
2018-07-26T03:57:05.615Z,7.93
2018-07-26T03:59:34.122Z,7.67
2018-07-26T04:02:02.625Z,8.60
2018-07-26T04:04:31.079Z,9.40
2018-07-26T04:06:59.540Z,8.80
2018-07-26T04:09:28.012Z,7.77
2018-07-26T04:11:56.507Z,9.93
2018-07-26T04:14:24.969Z,8.57
2018-07-26T04:16:53.420Z,9.43
2018-07-26T04:19:21.867Z,8.73
2018-07-26T04:21:51.169Z,9.27
2018-07-26T04:24:20.231Z,10.13
2018-07-26T04:26:49.453Z,10.53
2018-07-26T04:29:17.932Z,13.47
2018-07-26T04:31:47.223Z,11.13
2018-07-26T04:34:16.335Z,10.33
2018-07-26T04:36:45.560Z,13.30
2018-07-26T04:39:14.620Z,10.50
2018-07-26T04:41:43.851Z,11.23
2018-07-26T04:44:13.052Z,13.00
2018-07-26T04:46:42.045Z,12.53
2018-07-26T04:49:11.323Z,13.20
2018-07-26T04:51:40.305Z,12.40
2018-07-26T04:54:09.496Z,11.13
2018-07-26T04:56:38.388Z,10.20
2018-07-26T04:59:07.617Z,10.27
2018-07-26T05:01:36.877Z,10.70
2018-07-26T05:04:05.928Z,10.37
2018-07-26T05:06:34.904Z,10.17
2018-07-26T05:09:04.153Z,11.13
2018-07-26T05:11:33.354Z,12.00
2018-07-26T05:14:02.595Z,11.03
2018-07-26T05:16:31.815Z,9.97
2018-07-26T05:19:00.864Z,30.90
2018-07-26T05:21:29.866Z,30.03
2018-07-26T05:23:59.176Z,20.80
2018-07-26T05:26:28.328Z,18.60
2018-07-26T05:28:57.313Z,17.17
2018-07-26T05:31:26.404Z,16.87
2018-07-26T05:33:55.411Z,20.43
2018-07-26T05:36:25.192Z,13.73
2018-07-26T05:38:54.449Z,16.00
2018-07-26T05:41:23.675Z,13.73
2018-07-26T05:43:52.685Z,17.03
2018-07-26T05:46:21.898Z,16.20
2018-07-26T05:48:51.163Z,12.60
2018-07-26T05:51:20.159Z,10.90
2018-07-26T05:53:49.413Z,12.63
2018-07-26T05:56:18.633Z,10.53
2018-07-26T05:58:48.052Z,11.23
2018-07-26T06:01:17.306Z,11.47
2018-07-26T06:03:46.505Z,9.47
2018-07-26T06:06:15.724Z,8.63
2018-07-26T06:08:45.010Z,11.63
2018-07-26T06:11:14.290Z,12.57
2018-07-26T06:13:43.198Z,9.87
2018-07-26T06:16:12.440Z,9.43
2018-07-26T06:18:40.917Z,11.63
2018-07-26T06:21:09.377Z,10.47
2018-07-26T06:23:38.320Z,10.83
2018-07-26T06:26:07.387Z,11.17
2018-07-26T06:28:36.382Z,9.77
2018-07-26T06:31:05.659Z,8.83
2018-07-26T06:33:34.918Z,9.73
2018-07-26T06:36:04.099Z,9.43
2018-07-26T06:38:33.284Z,11.63
2018-07-26T06:41:02.389Z,8.90
2018-07-26T06:43:31.348Z,9.47
2018-07-26T06:46:00.615Z,11.43
2018-07-26T06:48:29.826Z,9.43
2018-07-26T06:50:59.067Z,9.07
2018-07-26T06:53:28.084Z,14.10
2018-07-26T06:55:57.096Z,10.87
2018-07-26T06:58:25.566Z,9.63
2018-07-26T07:00:54.260Z,10.53
2018-07-26T07:03:22.744Z,11.90
2018-07-26T07:05:51.377Z,10.33
2018-07-26T07:08:20.514Z,9.27
2018-07-26T07:10:48.983Z,9.77
2018-07-26T07:13:18.198Z,11.30
2018-07-26T07:15:47.383Z,10.47
2018-07-26T07:18:16.374Z,10.67
2018-07-26T07:20:45.413Z,9.53
2018-07-26T07:23:14.455Z,10.43
2018-07-26T07:25:43.691Z,10.80
2018-07-26T07:28:12.932Z,10.13
2018-07-26T07:30:42.152Z,10.30
2018-07-26T07:33:11.418Z,11.73
2018-07-26T07:35:40.600Z,11.97
2018-07-26T07:38:09.091Z,15.33
2018-07-26T07:40:37.579Z,11.80
2018-07-26T07:43:06.112Z,10.13
2018-07-26T07:45:35.024Z,10.03
2018-07-26T07:48:03.482Z,9.73
2018-07-26T07:50:31.961Z,9.73
2018-07-26T07:53:00.475Z,14.27
2018-07-26T07:55:28.924Z,11.27
2018-07-26T07:57:57.384Z,8.83
2018-07-26T08:00:25.847Z,15.93
2018-07-26T08:02:54.301Z,9.73
2018-07-26T08:05:22.748Z,9.73
2018-07-26T08:07:51.262Z,11.73
2018-07-26T08:10:19.861Z,12.90
2018-07-26T08:12:48.947Z,9.03
2018-07-26T08:15:18.543Z,13.30
2018-07-26T08:17:47.136Z,13.00
2018-07-26T08:20:15.717Z,11.70
2018-07-26T08:22:44.180Z,9.50
2018-07-26T08:25:12.644Z,9.57
2018-07-26T08:27:41.528Z,8.93
2018-07-26T08:30:11.691Z,9.80
2018-07-26T08:32:40.793Z,9.27
2018-07-26T08:35:10.051Z,15.53
2018-07-26T08:37:39.004Z,11.70
2018-07-26T08:40:07.611Z,15.00
2018-07-26T08:42:36.710Z,9.03
2018-07-26T08:45:05.963Z,11.43
2018-07-26T08:47:34.948Z,8.50
2018-07-26T08:50:03.583Z,9.57
2018-07-26T08:52:32.852Z,9.40
2018-07-26T08:55:02.053Z,11.20
2018-07-26T08:57:31.287Z,12.83
2018-07-26T09:00:00.273Z,8.57
2018-07-26T09:02:29.732Z,9.90
2018-07-26T09:04:58.201Z,9.17
2018-07-26T09:07:26.704Z,11.03
2018-07-26T09:09:55.593Z,10.50
2018-07-26T09:12:24.843Z,10.60
2018-07-26T09:14:54.263Z,9.83
2018-07-26T09:17:23.701Z,8.43
2018-07-26T09:19:52.788Z,9.17
2018-07-26T09:22:22.015Z,9.40
2018-07-26T09:24:51.018Z,10.30
2018-07-26T09:27:20.217Z,9.80
2018-07-26T09:29:48.688Z,9.90
2018-07-26T09:32:17.669Z,9.70
2018-07-26T09:34:46.910Z,12.57
2018-07-26T09:37:16.145Z,13.17
2018-07-26T09:39:45.368Z,9.00
2018-07-26T09:42:14.562Z,11.67
2018-07-26T09:44:43.871Z,9.03
2018-07-26T09:47:13.033Z,9.40
2018-07-26T09:49:42.316Z,11.97
2018-07-26T09:52:11.493Z,10.10
2018-07-26T09:54:40.767Z,8.97
2018-07-26T09:57:09.711Z,13.73
2018-07-26T09:59:38.783Z,9.57
2018-07-26T10:02:07.308Z,9.43
2018-07-26T10:04:36.446Z,10.43
2018-07-26T10:07:05.488Z,12.17
2018-07-26T10:09:34.695Z,10.77
2018-07-26T10:12:03.713Z,9.03
2018-07-26T10:14:32.980Z,9.57
2018-07-26T10:17:02.176Z,9.00
2018-07-26T10:19:31.016Z,9.10
2018-07-26T10:21:59.467Z,12.13
2018-07-26T10:24:28.027Z,10.07
2018-07-26T10:26:57.287Z,12.23
2018-07-26T10:29:26.531Z,9.57
2018-07-26T10:31:54.977Z,10.57
2018-07-26T10:34:23.998Z,13.70
2018-07-26T10:36:53.208Z,9.43
2018-07-26T10:39:22.601Z,10.37
2018-07-26T10:41:51.704Z,11.60
2018-07-26T10:44:21.097Z,10.50
2018-07-26T10:46:50.112Z,9.40
2018-07-26T10:49:19.360Z,8.27
2018-07-26T10:51:48.585Z,9.00
2018-07-26T10:54:17.616Z,9.10
2018-07-26T10:56:46.608Z,8.77
2018-07-26T10:59:15.846Z,10.00
2018-07-26T11:01:44.904Z,8.47
2018-07-26T11:04:14.133Z,8.70
2018-07-26T11:06:42.574Z,9.30
2018-07-26T11:09:11.521Z,9.70
2018-07-26T11:11:40.648Z,8.13
2018-07-26T11:14:09.540Z,7.93
2018-07-26T11:16:38.705Z,12.17
2018-07-26T11:19:07.756Z,8.30
2018-07-26T11:21:36.944Z,8.97
2018-07-26T11:24:05.979Z,10.23
2018-07-26T11:26:35.207Z,8.20
2018-07-26T11:29:04.252Z,7.97
2018-07-26T11:31:33.494Z,9.13
2018-07-26T11:34:02.694Z,7.87
2018-07-26T11:36:31.894Z,6.60
2018-07-26T11:39:01.102Z,11.70
2018-07-26T11:41:30.412Z,9.07
2018-07-26T11:43:59.595Z,8.17
2018-07-26T11:46:28.781Z,8.03
2018-07-26T11:48:58.220Z,6.73
2018-07-26T11:51:27.448Z,7.27
2018-07-26T11:53:56.788Z,6.63
2018-07-26T11:56:25.901Z,6.17
2018-07-26T11:58:55.111Z,8.03
2018-07-26T12:01:24.363Z,6.03
2018-07-26T12:03:53.639Z,6.20
2018-07-26T12:06:22.611Z,9.67
2018-07-26T12:08:51.847Z,6.40
2018-07-26T12:11:21.083Z,6.63
2018-07-26T12:13:50.301Z,6.43
2018-07-26T12:16:19.510Z,6.67
2018-07-26T12:18:48.512Z,7.37
2018-07-26T12:21:17.797Z,8.27
2018-07-26T12:23:47.016Z,10.10
2018-07-26T12:26:16.214Z,7.00
2018-07-26T12:28:45.232Z,6.67
2018-07-26T12:31:14.499Z,7.67
2018-07-26T12:33:43.720Z,8.30
2018-07-26T12:36:13.458Z,6.87
2018-07-26T12:38:42.537Z,9.07
2018-07-26T12:41:11.587Z,6.10
2018-07-26T12:43:40.689Z,5.70
2018-07-26T12:46:09.834Z,7.87
2018-07-26T12:48:39.232Z,6.50
2018-07-26T12:51:08.299Z,5.77
2018-07-26T12:53:37.266Z,5.90
2018-07-26T12:56:06.320Z,6.43
2018-07-26T12:58:35.564Z,6.70
2018-07-26T13:01:04.789Z,8.60
2018-07-26T13:03:33.824Z,5.00
2018-07-26T13:06:03.022Z,6.57
2018-07-26T13:08:32.407Z,6.33
2018-07-26T13:11:01.495Z,5.83
2018-07-26T13:13:31.219Z,9.23
2018-07-26T13:16:00.352Z,4.80
2018-07-26T13:18:29.567Z,6.93
2018-07-26T13:20:58.566Z,4.70
2018-07-26T13:23:27.823Z,7.97
2018-07-26T13:25:57.068Z,4.27
2018-07-26T13:28:26.086Z,5.33
2018-07-26T13:30:54.678Z,7.57
2018-07-26T13:33:23.183Z,5.00
2018-07-26T13:35:51.724Z,4.33
2018-07-26T13:38:20.280Z,5.03
2018-07-26T13:40:49.512Z,4.30
2018-07-26T13:43:18.465Z,4.43
2018-07-26T13:45:46.967Z,6.83
2018-07-26T13:48:15.497Z,5.40
2018-07-26T13:50:44.176Z,5.07
2018-07-26T13:53:12.686Z,4.63
2018-07-26T13:55:41.242Z,4.27
2018-07-26T13:58:09.767Z,4.53
2018-07-26T14:00:38.282Z,6.97
2018-07-26T14:03:06.833Z,4.30
2018-07-26T14:05:35.347Z,4.67
2018-07-26T14:08:03.901Z,4.83
2018-07-26T14:10:33.090Z,7.58
2018-07-26T14:13:02.604Z,4.33
2018-07-26T14:15:31.245Z,6.45
2018-07-26T14:17:59.695Z,5.12
2018-07-26T14:20:28.228Z,4.75
2018-07-26T14:22:57.200Z,5.90
2018-07-26T14:25:25.724Z,4.53
2018-07-26T14:27:54.256Z,5.33
2018-07-26T14:30:22.808Z,5.03
2018-07-26T14:32:51.367Z,5.72
2018-07-26T14:35:20.232Z,4.85
2018-07-26T14:37:49.277Z,4.83
2018-07-26T14:40:18.500Z,4.90
2018-07-26T14:42:47.030Z,7.45
2018-07-26T14:45:15.637Z,4.92
2018-07-26T14:47:44.193Z,6.58
2018-07-26T14:50:12.750Z,5.00
2018-07-26T14:52:41.404Z,5.15
2018-07-26T14:55:10.895Z,5.42
2018-07-26T14:57:40.118Z,7.40
2018-07-26T15:00:08.667Z,5.00
2018-07-26T15:02:37.994Z,5.90
2018-07-26T15:05:07.034Z,6.55
2018-07-26T15:07:35.600Z,5.10
2018-07-26T15:10:04.634Z,5.55
2018-07-26T15:12:33.907Z,4.60
2018-07-26T15:15:03.147Z,4.42
2018-07-26T15:17:31.703Z,5.28
2018-07-26T15:20:00.528Z,4.60
2018-07-26T15:22:29.078Z,4.62
2018-07-26T15:24:57.621Z,4.33
2018-07-26T15:27:26.239Z,4.50
2018-07-26T15:29:54.768Z,6.30
2018-07-26T15:32:23.348Z,4.85
2018-07-26T15:34:51.955Z,4.47
2018-07-26T15:37:21.283Z,4.87
2018-07-26T15:39:50.481Z,7.42
2018-07-26T15:42:19.696Z,5.12
2018-07-26T15:44:48.692Z,4.20
2018-07-26T15:47:17.731Z,4.73
2018-07-26T15:49:47.032Z,6.87
2018-07-26T15:52:16.208Z,4.70
2018-07-26T15:54:45.475Z,5.17
2018-07-26T15:57:14.013Z,4.63
2018-07-26T15:59:42.636Z,4.67
2018-07-26T16:02:11.707Z,5.67
2018-07-26T16:04:40.967Z,4.90
2018-07-26T16:07:09.500Z,4.90
2018-07-26T16:09:38.009Z,4.85
2018-07-26T16:12:06.552Z,3.90
2018-07-26T16:14:35.103Z,4.60
2018-07-26T16:17:04.336Z,4.03
2018-07-26T16:19:33.324Z,4.63
2018-07-26T16:22:02.850Z,4.13
2018-07-26T16:24:31.361Z,4.50
2018-07-26T16:26:59.873Z,4.53
2018-07-26T16:29:29.066Z,5.60
2018-07-26T16:31:58.320Z,4.80
2018-07-26T16:34:27.540Z,6.27
2018-07-26T16:36:56.745Z,4.20
2018-07-26T16:39:25.982Z,4.60
2018-07-26T16:41:55.215Z,4.75
2018-07-26T16:44:24.445Z,4.27
2018-07-26T16:46:53.467Z,5.33
2018-07-26T16:49:22.476Z,6.23
2018-07-26T16:51:51.725Z,5.53
2018-07-26T16:54:20.984Z,11.63
2018-07-26T16:56:50.011Z,5.00
2018-07-26T16:59:19.206Z,4.23
2018-07-26T17:01:48.435Z,7.30
2018-07-26T17:04:17.437Z,4.20
2018-07-26T17:06:46.468Z,4.47
2018-07-26T17:09:15.012Z,3.50
2018-07-26T17:11:43.544Z,3.83
2018-07-26T17:14:12.817Z,6.50
2018-07-26T17:16:42.123Z,4.97
2018-07-26T17:19:10.692Z,5.40
2018-07-26T17:21:39.304Z,4.07
2018-07-26T17:24:07.828Z,7.47
2018-07-26T17:26:36.972Z,4.92
2018-07-26T17:29:05.572Z,6.63
2018-07-26T17:31:34.232Z,4.63
2018-07-26T17:34:02.773Z,4.50
2018-07-26T17:36:31.300Z,4.00
2018-07-26T17:38:59.816Z,3.57
2018-07-26T17:41:28.975Z,6.50
2018-07-26T17:43:57.962Z,4.83
2018-07-26T17:46:27.364Z,5.17
2018-07-26T17:48:56.651Z,8.90
2018-07-26T17:51:25.903Z,5.97
2018-07-26T17:53:54.863Z,4.27
2018-07-26T17:56:24.132Z,4.60
2018-07-26T17:58:53.388Z,4.30
2018-07-26T18:01:21.924Z,4.60
2018-07-26T18:03:50.520Z,4.47
2018-07-26T18:06:19.432Z,4.90
2018-07-26T18:08:47.936Z,3.63
2018-07-26T18:11:16.587Z,4.50
2018-07-26T18:13:45.116Z,6.00
2018-07-26T18:16:13.680Z,9.03
2018-07-26T18:18:42.176Z,4.80
2018-07-26T18:21:10.734Z,4.87
2018-07-26T18:23:39.250Z,6.23
2018-07-26T18:26:07.850Z,4.70
2018-07-26T18:28:37.215Z,5.03
2018-07-26T18:31:06.288Z,5.63
2018-07-26T18:33:35.471Z,5.23
2018-07-26T18:36:04.693Z,4.57
2018-07-26T18:38:33.911Z,5.40
2018-07-26T18:41:03.127Z,5.57
2018-07-26T18:43:32.189Z,5.57
2018-07-26T18:46:01.206Z,6.60
2018-07-26T18:48:30.399Z,7.10
2018-07-26T18:50:58.955Z,5.57
2018-07-26T18:53:27.480Z,5.23
2018-07-26T18:55:56.446Z,6.73
2018-07-26T18:58:25.543Z,6.77
2018-07-26T19:00:55.324Z,5.27
2018-07-26T19:03:25.017Z,5.00
2018-07-26T19:05:54.376Z,6.93
2018-07-26T19:08:23.279Z,5.80
2018-07-26T19:10:51.976Z,7.20
2018-07-26T19:13:21.416Z,6.17
2018-07-26T19:15:50.500Z,6.50
2018-07-26T19:18:19.740Z,6.93
2018-07-26T19:20:48.972Z,6.00
2018-07-26T19:23:17.496Z,5.63
2018-07-26T19:25:46.824Z,7.03
2018-07-26T19:28:16.620Z,7.40
2018-07-26T19:30:45.905Z,5.07
2018-07-26T19:33:15.304Z,6.63
2018-07-26T19:35:45.070Z,7.67
2018-07-26T19:38:14.351Z,7.43
2018-07-26T19:40:43.870Z,10.47
2018-07-26T19:43:13.365Z,5.87
2018-07-26T19:45:41.954Z,6.17
2018-07-26T19:48:11.226Z,10.27
2018-07-26T19:50:40.225Z,9.37
2018-07-26T19:53:09.487Z,7.53
2018-07-26T19:55:38.493Z,7.80
2018-07-26T19:58:07.960Z,8.57
2018-07-26T20:00:37.415Z,7.33
2018-07-26T20:03:06.580Z,9.73
2018-07-26T20:05:35.977Z,9.03
2018-07-26T20:08:05.284Z,9.47
2018-07-26T20:10:34.484Z,10.23
2018-07-26T20:13:03.841Z,8.67
2018-07-26T20:15:33.104Z,8.90
2018-07-26T20:18:02.307Z,10.30
2018-07-26T20:20:31.243Z,7.47
2018-07-26T20:23:00.316Z,10.33
2018-07-26T20:25:29.584Z,11.57
2018-07-26T20:27:58.886Z,9.87
2018-07-26T20:30:28.062Z,11.07
2018-07-26T20:32:57.362Z,12.63
2018-07-26T20:35:26.685Z,11.40
2018-07-26T20:37:55.935Z,8.37
2018-07-26T20:40:25.206Z,14.07
2018-07-26T20:42:54.189Z,8.77
2018-07-26T20:45:23.213Z,10.77
2018-07-26T20:47:52.472Z,10.27
2018-07-26T20:50:21.680Z,10.17
2018-07-26T20:52:50.915Z,7.13
2018-07-26T20:55:20.116Z,7.97
2018-07-26T20:57:49.544Z,10.10
2018-07-26T21:00:18.778Z,6.70
2018-07-26T21:02:48.007Z,9.33
2018-07-26T21:05:17.045Z,7.47
2018-07-26T21:07:46.032Z,6.90
2018-07-26T21:10:15.084Z,8.57
2018-07-26T21:12:44.363Z,7.27
2018-07-26T21:15:12.872Z,6.87
2018-07-26T21:17:42.178Z,8.23
2018-07-26T21:20:10.697Z,8.03
2018-07-26T21:22:39.845Z,7.00
2018-07-26T21:25:09.059Z,7.37
2018-07-26T21:27:38.056Z,6.80
2018-07-26T21:30:07.315Z,5.80
2018-07-26T21:32:36.774Z,8.27
2018-07-26T21:35:06.388Z,6.13
2018-07-26T21:37:35.758Z,7.53
2018-07-26T21:40:05.413Z,7.60
2018-07-26T21:42:34.640Z,5.77
2018-07-26T21:45:04.000Z,10.87
2018-07-26T21:47:33.299Z,5.90
2018-07-26T21:50:02.505Z,9.13
2018-07-26T21:52:31.719Z,6.60
2018-07-26T21:55:00.953Z,7.23
2018-07-26T21:57:29.961Z,9.67
2018-07-26T21:59:59.211Z,5.47
2018-07-26T22:02:28.461Z,6.47
2018-07-26T22:04:57.678Z,5.23
2018-07-26T22:07:26.662Z,5.63
2018-07-26T22:09:55.696Z,9.07
2018-07-26T22:12:24.960Z,7.40
2018-07-26T22:14:54.172Z,5.70
2018-07-26T22:17:23.450Z,5.73
2018-07-26T22:19:52.643Z,4.80
2018-07-26T22:22:21.860Z,6.30
2018-07-26T22:24:51.079Z,6.07
2018-07-26T22:27:20.319Z,8.90
2018-07-26T22:29:49.288Z,6.50
2018-07-26T22:32:18.347Z,8.90
2018-07-26T22:34:47.612Z,7.60
2018-07-26T22:37:16.818Z,5.77
2018-07-26T22:39:46.066Z,6.70
2018-07-26T22:42:15.203Z,5.87
2018-07-26T22:44:44.279Z,6.23
2018-07-26T22:47:13.288Z,8.40
2018-07-26T22:49:42.366Z,5.83
2018-07-26T22:52:11.377Z,7.53
2018-07-26T22:54:40.604Z,5.10
2018-07-26T22:57:09.834Z,6.73
2018-07-26T22:59:39.040Z,6.53
2018-07-26T23:02:08.258Z,5.73
2018-07-26T23:04:37.539Z,6.50
2018-07-26T23:07:06.835Z,5.97
2018-07-26T23:09:36.174Z,6.83
2018-07-26T23:12:05.400Z,7.50
2018-07-26T23:14:34.412Z,8.00
2018-07-26T23:17:03.656Z,5.93
2018-07-26T23:19:32.643Z,5.90
2018-07-26T23:22:02.260Z,6.00
2018-07-26T23:24:31.535Z,5.33
2018-07-26T23:27:00.757Z,7.37
2018-07-26T23:29:29.967Z,6.63
2018-07-26T23:31:59.159Z,8.40
2018-07-26T23:34:28.425Z,6.60
2018-07-26T23:36:57.636Z,7.67
2018-07-26T23:39:26.686Z,5.13
2018-07-26T23:41:56.901Z,6.03
2018-07-26T23:44:26.112Z,6.77
2018-07-26T23:46:55.114Z,5.13
2018-07-26T23:49:24.143Z,8.87
2018-07-26T23:51:53.412Z,6.70
2018-07-26T23:54:22.660Z,7.27
2018-07-26T23:56:51.837Z,5.90
2018-07-26T23:59:20.836Z,6.83
